sensor_id;sensor_type;location;lat;lon;timestamp;P1;durP1;ratioP1;P2;durP2;ratioP2
31808;SDS011;18379;48.208;-1.518;2023-12-20T00:01:41;13.10;;;10.80;;
31808;SDS011;18379;48.208;-1.518;2023-12-20T00:06:42;15.30;;;11.30;;
31808;SDS011;18379;48.208;-1.518;2023-12-20T00:11:43;18.47;;;11.27;;
31808;SDS011;18379;48.208;-1.518;2023-12-20T00:16:43;16.63;;;10.93;;
31808;SDS011;18379;48.208;-1.518;2023-12-20T00:21:44;18.90;;;11.87;;
31808;SDS011;18379;48.208;-1.518;2023-12-20T00:26:44;11.53;;;10.30;;
31808;SDS011;18379;48.208;-1.518;2023-12-20T00:31:45;12.67;;;11.20;;
31808;SDS011;18379;48.208;-1.518;2023-12-20T00:36:46;15.13;;;10.47;;
31808;SDS011;18379;48.208;-1.518;2023-12-20T00:41:47;15.70;;;11.00;;
31808;SDS011;18379;48.208;-1.518;2023-12-20T00:46:47;12.77;;;11.47;;
31808;SDS011;18379;48.208;-1.518;2023-12-20T00:51:48;14.20;;;10.97;;
31808;SDS011;18379;48.208;-1.518;2023-12-20T00:56:50;12.07;;;10.13;;
31808;SDS011;18379;48.208;-1.518;2023-12-20T01:01:51;12.77;;;10.63;;
31808;SDS011;18379;48.208;-1.518;2023-12-20T01:06:51;16.20;;;10.43;;
31808;SDS011;18379;48.208;-1.518;2023-12-20T01:11:52;13.37;;;10.30;;
31808;SDS011;18379;48.208;-1.518;2023-12-20T01:16:53;12.13;;;11.07;;
31808;SDS011;18379;48.208;-1.518;2023-12-20T01:21:54;16.17;;;11.40;;
31808;SDS011;18379;48.208;-1.518;2023-12-20T01:26:55;11.60;;;10.40;;
31808;SDS011;18379;48.208;-1.518;2023-12-20T01:31:56;15.70;;;11.10;;
31808;SDS011;18379;48.208;-1.518;2023-12-20T01:36:56;14.47;;;11.10;;
31808;SDS011;18379;48.208;-1.518;2023-12-20T01:41:57;14.00;;;10.70;;
31808;SDS011;18379;48.208;-1.518;2023-12-20T01:46:58;11.97;;;10.40;;
31808;SDS011;18379;48.208;-1.518;2023-12-20T01:51:58;11.53;;;10.33;;
31808;SDS011;18379;48.208;-1.518;2023-12-20T01:56:59;12.27;;;11.10;;
31808;SDS011;18379;48.208;-1.518;2023-12-20T02:02:00;13.83;;;9.97;;
31808;SDS011;18379;48.208;-1.518;2023-12-20T02:07:01;13.17;;;10.90;;
31808;SDS011;18379;48.208;-1.518;2023-12-20T02:12:03;11.97;;;10.00;;
31808;SDS011;18379;48.208;-1.518;2023-12-20T02:17:04;14.60;;;10.17;;
31808;SDS011;18379;48.208;-1.518;2023-12-20T02:22:11;11.83;;;10.80;;
31808;SDS011;18379;48.208;-1.518;2023-12-20T02:27:12;12.10;;;10.63;;
31808;SDS011;18379;48.208;-1.518;2023-12-20T02:32:14;15.47;;;10.23;;
31808;SDS011;18379;48.208;-1.518;2023-12-20T02:37:19;13.23;;;10.13;;
31808;SDS011;18379;48.208;-1.518;2023-12-20T02:42:19;14.23;;;10.93;;
31808;SDS011;18379;48.208;-1.518;2023-12-20T02:47:20;16.17;;;10.33;;
31808;SDS011;18379;48.208;-1.518;2023-12-20T02:52:21;12.87;;;9.73;;
31808;SDS011;18379;48.208;-1.518;2023-12-20T02:57:23;11.40;;;10.23;;
31808;SDS011;18379;48.208;-1.518;2023-12-20T03:02:23;10.97;;;10.10;;
31808;SDS011;18379;48.208;-1.518;2023-12-20T03:07:24;15.27;;;10.87;;
31808;SDS011;18379;48.208;-1.518;2023-12-20T03:12:24;11.60;;;10.40;;
31808;SDS011;18379;48.208;-1.518;2023-12-20T03:17:25;14.27;;;10.00;;
31808;SDS011;18379;48.208;-1.518;2023-12-20T03:22:26;12.87;;;10.00;;
31808;SDS011;18379;48.208;-1.518;2023-12-20T03:27:26;12.10;;;10.53;;
31808;SDS011;18379;48.208;-1.518;2023-12-20T03:32:27;13.13;;;10.30;;
31808;SDS011;18379;48.208;-1.518;2023-12-20T03:37:28;14.23;;;10.60;;
31808;SDS011;18379;48.208;-1.518;2023-12-20T03:42:29;14.30;;;10.23;;
31808;SDS011;18379;48.208;-1.518;2023-12-20T03:47:29;11.10;;;10.17;;
31808;SDS011;18379;48.208;-1.518;2023-12-20T03:52:30;11.67;;;10.50;;
31808;SDS011;18379;48.208;-1.518;2023-12-20T03:57:30;12.27;;;10.60;;
31808;SDS011;18379;48.208;-1.518;2023-12-20T04:02:31;10.97;;;9.90;;
31808;SDS011;18379;48.208;-1.518;2023-12-20T04:07:32;13.37;;;10.10;;
31808;SDS011;18379;48.208;-1.518;2023-12-20T04:12:32;15.77;;;10.40;;
31808;SDS011;18379;48.208;-1.518;2023-12-20T04:17:33;18.03;;;10.40;;
31808;SDS011;18379;48.208;-1.518;2023-12-20T04:22:34;12.07;;;9.93;;
31808;SDS011;18379;48.208;-1.518;2023-12-20T04:27:35;11.07;;;9.93;;
31808;SDS011;18379;48.208;-1.518;2023-12-20T04:32:35;14.73;;;10.83;;
31808;SDS011;18379;48.208;-1.518;2023-12-20T04:37:36;16.00;;;10.90;;
31808;SDS011;18379;48.208;-1.518;2023-12-20T04:42:36;16.33;;;10.37;;
31808;SDS011;18379;48.208;-1.518;2023-12-20T04:47:37;12.60;;;9.93;;
31808;SDS011;18379;48.208;-1.518;2023-12-20T04:52:38;11.60;;;10.40;;
31808;SDS011;18379;48.208;-1.518;2023-12-20T04:57:38;13.77;;;10.33;;
31808;SDS011;18379;48.208;-1.518;2023-12-20T05:02:39;14.70;;;9.80;;
31808;SDS011;18379;48.208;-1.518;2023-12-20T05:07:40;12.77;;;9.73;;
31808;SDS011;18379;48.208;-1.518;2023-12-20T05:12:40;12.07;;;10.27;;
31808;SDS011;18379;48.208;-1.518;2023-12-20T05:17:41;11.63;;;10.53;;
31808;SDS011;18379;48.208;-1.518;2023-12-20T05:22:42;10.90;;;9.87;;
31808;SDS011;18379;48.208;-1.518;2023-12-20T05:27:42;11.10;;;10.00;;
31808;SDS011;18379;48.208;-1.518;2023-12-20T05:32:43;11.60;;;10.37;;
31808;SDS011;18379;48.208;-1.518;2023-12-20T05:37:44;12.37;;;10.10;;
31808;SDS011;18379;48.208;-1.518;2023-12-20T05:42:44;13.27;;;10.47;;
31808;SDS011;18379;48.208;-1.518;2023-12-20T05:47:45;11.90;;;10.17;;
31808;SDS011;18379;48.208;-1.518;2023-12-20T05:52:45;11.60;;;10.57;;
31808;SDS011;18379;48.208;-1.518;2023-12-20T05:57:46;11.57;;;10.20;;
31808;SDS011;18379;48.208;-1.518;2023-12-20T06:02:47;16.47;;;11.37;;
31808;SDS011;18379;48.208;-1.518;2023-12-20T06:07:47;14.67;;;9.97;;
31808;SDS011;18379;48.208;-1.518;2023-12-20T06:12:49;12.67;;;11.20;;
31808;SDS011;18379;48.208;-1.518;2023-12-20T06:17:51;12.50;;;11.23;;
31808;SDS011;18379;48.208;-1.518;2023-12-20T06:22:51;17.87;;;11.97;;
31808;SDS011;18379;48.208;-1.518;2023-12-20T06:27:52;10.97;;;10.00;;
31808;SDS011;18379;48.208;-1.518;2023-12-20T06:32:53;15.60;;;10.77;;
31808;SDS011;18379;48.208;-1.518;2023-12-20T06:37:54;15.40;;;10.03;;
31808;SDS011;18379;48.208;-1.518;2023-12-20T06:42:55;14.23;;;10.77;;
31808;SDS011;18379;48.208;-1.518;2023-12-20T06:47:55;10.67;;;9.60;;
31808;SDS011;18379;48.208;-1.518;2023-12-20T06:52:56;11.40;;;10.07;;
31808;SDS011;18379;48.208;-1.518;2023-12-20T06:57:57;12.37;;;9.87;;
31808;SDS011;18379;48.208;-1.518;2023-12-20T07:02:57;12.87;;;11.13;;
31808;SDS011;18379;48.208;-1.518;2023-12-20T07:07:58;16.07;;;10.83;;
31808;SDS011;18379;48.208;-1.518;2023-12-20T07:12:59;14.60;;;10.57;;
31808;SDS011;18379;48.208;-1.518;2023-12-20T07:17:59;11.13;;;9.80;;
31808;SDS011;18379;48.208;-1.518;2023-12-20T07:23:00;11.40;;;10.20;;
31808;SDS011;18379;48.208;-1.518;2023-12-20T07:28:01;12.60;;;10.70;;
31808;SDS011;18379;48.208;-1.518;2023-12-20T07:33:02;13.23;;;10.70;;
31808;SDS011;18379;48.208;-1.518;2023-12-20T07:38:03;18.67;;;10.87;;
31808;SDS011;18379;48.208;-1.518;2023-12-20T07:43:04;10.67;;;9.67;;
31808;SDS011;18379;48.208;-1.518;2023-12-20T07:48:05;13.00;;;10.00;;
31808;SDS011;18379;48.208;-1.518;2023-12-20T07:53:06;12.57;;;10.20;;
31808;SDS011;18379;48.208;-1.518;2023-12-20T07:58:07;13.53;;;10.20;;
31808;SDS011;18379;48.208;-1.518;2023-12-20T08:03:08;14.10;;;10.70;;
31808;SDS011;18379;48.208;-1.518;2023-12-20T08:08:08;15.03;;;10.63;;
31808;SDS011;18379;48.208;-1.518;2023-12-20T08:13:09;17.57;;;10.33;;
31808;SDS011;18379;48.208;-1.518;2023-12-20T08:18:10;16.30;;;9.67;;
31808;SDS011;18379;48.208;-1.518;2023-12-20T08:23:11;11.93;;;10.57;;
31808;SDS011;18379;48.208;-1.518;2023-12-20T08:28:12;19.57;;;10.43;;
31808;SDS011;18379;48.208;-1.518;2023-12-20T08:33:13;17.73;;;10.90;;
31808;SDS011;18379;48.208;-1.518;2023-12-20T08:38:13;13.93;;;10.80;;
31808;SDS011;18379;48.208;-1.518;2023-12-20T08:43:14;16.60;;;10.67;;
31808;SDS011;18379;48.208;-1.518;2023-12-20T08:48:15;16.00;;;10.47;;
31808;SDS011;18379;48.208;-1.518;2023-12-20T08:53:15;18.03;;;11.13;;
31808;SDS011;18379;48.208;-1.518;2023-12-20T08:58:16;15.00;;;10.10;;
31808;SDS011;18379;48.208;-1.518;2023-12-20T09:03:17;12.50;;;10.70;;
31808;SDS011;18379;48.208;-1.518;2023-12-20T09:08:18;17.77;;;11.37;;
31808;SDS011;18379;48.208;-1.518;2023-12-20T09:13:18;16.63;;;12.43;;
31808;SDS011;18379;48.208;-1.518;2023-12-20T09:18:20;19.53;;;11.23;;
31808;SDS011;18379;48.208;-1.518;2023-12-20T09:23:21;12.57;;;11.47;;
31808;SDS011;18379;48.208;-1.518;2023-12-20T09:28:22;18.07;;;11.07;;
31808;SDS011;18379;48.208;-1.518;2023-12-20T09:33:23;15.43;;;10.97;;
31808;SDS011;18379;48.208;-1.518;2023-12-20T09:38:24;16.53;;;11.80;;
31808;SDS011;18379;48.208;-1.518;2023-12-20T09:43:25;13.97;;;11.03;;
31808;SDS011;18379;48.208;-1.518;2023-12-20T09:48:28;23.23;;;15.70;;
31808;SDS011;18379;48.208;-1.518;2023-12-20T09:53:30;17.10;;;12.27;;
31808;SDS011;18379;48.208;-1.518;2023-12-20T09:58:35;14.90;;;13.20;;
31808;SDS011;18379;48.208;-1.518;2023-12-20T10:03:37;16.90;;;13.10;;
31808;SDS011;18379;48.208;-1.518;2023-12-20T10:08:41;18.53;;;13.47;;
31808;SDS011;18379;48.208;-1.518;2023-12-20T10:13:42;14.70;;;13.20;;
31808;SDS011;18379;48.208;-1.518;2023-12-20T10:18:43;17.17;;;13.77;;
31808;SDS011;18379;48.208;-1.518;2023-12-20T10:23:45;19.70;;;14.40;;
31808;SDS011;18379;48.208;-1.518;2023-12-20T10:28:46;17.63;;;15.27;;
31808;SDS011;18379;48.208;-1.518;2023-12-20T10:33:51;17.83;;;13.03;;
31808;SDS011;18379;48.208;-1.518;2023-12-20T10:38:52;16.60;;;13.37;;
31808;SDS011;18379;48.208;-1.518;2023-12-20T10:43:55;18.47;;;15.33;;
31808;SDS011;18379;48.208;-1.518;2023-12-20T10:49:05;19.03;;;14.10;;
31808;SDS011;18379;48.208;-1.518;2023-12-20T10:54:08;18.20;;;14.00;;
31808;SDS011;18379;48.208;-1.518;2023-12-20T10:59:10;18.80;;;15.50;;
31808;SDS011;18379;48.208;-1.518;2023-12-20T11:04:13;17.47;;;14.50;;
31808;SDS011;18379;48.208;-1.518;2023-12-20T11:09:29;15.13;;;13.83;;
31808;SDS011;18379;48.208;-1.518;2023-12-20T11:24:52;15.93;;;14.20;;
31808;SDS011;18379;48.208;-1.518;2023-12-20T11:29:54;16.70;;;15.10;;
31808;SDS011;18379;48.208;-1.518;2023-12-20T11:40:13;20.10;;;15.07;;
31808;SDS011;18379;48.208;-1.518;2023-12-20T11:45:16;19.07;;;14.60;;
31808;SDS011;18379;48.208;-1.518;2023-12-20T11:50:21;16.47;;;14.73;;
31808;SDS011;18379;48.208;-1.518;2023-12-20T11:55:23;17.97;;;14.30;;
31808;SDS011;18379;48.208;-1.518;2023-12-20T12:00:24;16.63;;;14.90;;
31808;SDS011;18379;48.208;-1.518;2023-12-20T12:05:25;16.23;;;14.63;;
31808;SDS011;18379;48.208;-1.518;2023-12-20T12:10:26;18.90;;;14.97;;
31808;SDS011;18379;48.208;-1.518;2023-12-20T12:15:26;15.87;;;14.07;;
31808;SDS011;18379;48.208;-1.518;2023-12-20T12:20:27;17.47;;;15.43;;
31808;SDS011;18379;48.208;-1.518;2023-12-20T12:25:28;18.70;;;15.00;;
31808;SDS011;18379;48.208;-1.518;2023-12-20T12:30:30;16.97;;;14.23;;
31808;SDS011;18379;48.208;-1.518;2023-12-20T12:35:31;16.43;;;14.67;;
31808;SDS011;18379;48.208;-1.518;2023-12-20T12:40:34;15.63;;;14.03;;
31808;SDS011;18379;48.208;-1.518;2023-12-20T12:45:36;16.87;;;15.30;;
31808;SDS011;18379;48.208;-1.518;2023-12-20T12:50:36;17.63;;;15.17;;
31808;SDS011;18379;48.208;-1.518;2023-12-20T12:55:37;20.83;;;15.13;;
31808;SDS011;18379;48.208;-1.518;2023-12-20T13:00:37;21.07;;;14.93;;
31808;SDS011;18379;48.208;-1.518;2023-12-20T13:05:38;16.50;;;14.93;;
31808;SDS011;18379;48.208;-1.518;2023-12-20T13:10:39;17.37;;;14.80;;
31808;SDS011;18379;48.208;-1.518;2023-12-20T13:15:39;16.13;;;14.67;;
31808;SDS011;18379;48.208;-1.518;2023-12-20T13:20:40;18.73;;;14.93;;
31808;SDS011;18379;48.208;-1.518;2023-12-20T13:25:41;16.20;;;14.50;;
31808;SDS011;18379;48.208;-1.518;2023-12-20T13:30:41;18.10;;;15.83;;
31808;SDS011;18379;48.208;-1.518;2023-12-20T13:35:42;17.40;;;15.60;;
31808;SDS011;18379;48.208;-1.518;2023-12-20T13:40:43;16.73;;;15.13;;
31808;SDS011;18379;48.208;-1.518;2023-12-20T13:45:43;16.83;;;15.33;;
31808;SDS011;18379;48.208;-1.518;2023-12-20T13:50:44;16.97;;;15.40;;
31808;SDS011;18379;48.208;-1.518;2023-12-20T13:55:44;16.23;;;14.73;;
31808;SDS011;18379;48.208;-1.518;2023-12-20T14:00:45;16.33;;;14.30;;
31808;SDS011;18379;48.208;-1.518;2023-12-20T14:05:46;15.50;;;14.13;;
31808;SDS011;18379;48.208;-1.518;2023-12-20T14:10:46;15.93;;;14.33;;
31808;SDS011;18379;48.208;-1.518;2023-12-20T14:15:47;15.67;;;14.47;;
31808;SDS011;18379;48.208;-1.518;2023-12-20T14:20:49;15.40;;;14.20;;
31808;SDS011;18379;48.208;-1.518;2023-12-20T14:25:50;16.23;;;14.83;;
31808;SDS011;18379;48.208;-1.518;2023-12-20T14:30:51;31.83;;;23.60;;
31808;SDS011;18379;48.208;-1.518;2023-12-20T14:35:52;16.07;;;14.50;;
31808;SDS011;18379;48.208;-1.518;2023-12-20T14:40:53;16.30;;;14.33;;
31808;SDS011;18379;48.208;-1.518;2023-12-20T14:45:53;15.80;;;14.50;;
31808;SDS011;18379;48.208;-1.518;2023-12-20T14:50:54;16.67;;;14.90;;
31808;SDS011;18379;48.208;-1.518;2023-12-20T14:55:55;17.67;;;15.83;;
31808;SDS011;18379;48.208;-1.518;2023-12-20T15:00:55;17.30;;;15.63;;
31808;SDS011;18379;48.208;-1.518;2023-12-20T15:05:56;18.67;;;14.67;;
31808;SDS011;18379;48.208;-1.518;2023-12-20T15:10:58;16.33;;;14.60;;
31808;SDS011;18379;48.208;-1.518;2023-12-20T15:15:59;17.20;;;15.37;;
31808;SDS011;18379;48.208;-1.518;2023-12-20T15:21:00;19.90;;;14.50;;
31808;SDS011;18379;48.208;-1.518;2023-12-20T15:26:00;17.20;;;15.10;;
31808;SDS011;18379;48.208;-1.518;2023-12-20T15:31:01;18.17;;;16.27;;
31808;SDS011;18379;48.208;-1.518;2023-12-20T15:36:01;19.77;;;17.53;;
31808;SDS011;18379;48.208;-1.518;2023-12-20T15:41:02;19.83;;;15.30;;
31808;SDS011;18379;48.208;-1.518;2023-12-20T15:46:03;19.27;;;17.20;;
31808;SDS011;18379;48.208;-1.518;2023-12-20T15:51:07;17.40;;;15.57;;
31808;SDS011;18379;48.208;-1.518;2023-12-20T15:56:09;18.23;;;14.97;;
31808;SDS011;18379;48.208;-1.518;2023-12-20T16:01:09;21.73;;;14.83;;
31808;SDS011;18379;48.208;-1.518;2023-12-20T16:06:10;17.23;;;14.57;;
31808;SDS011;18379;48.208;-1.518;2023-12-20T16:11:11;16.83;;;14.33;;
31808;SDS011;18379;48.208;-1.518;2023-12-20T16:16:11;15.63;;;14.00;;
31808;SDS011;18379;48.208;-1.518;2023-12-20T16:21:12;15.47;;;13.90;;
31808;SDS011;18379;48.208;-1.518;2023-12-20T16:26:13;16.80;;;15.10;;
31808;SDS011;18379;48.208;-1.518;2023-12-20T16:31:13;17.00;;;14.80;;
31808;SDS011;18379;48.208;-1.518;2023-12-20T16:36:14;15.57;;;14.07;;
31808;SDS011;18379;48.208;-1.518;2023-12-20T16:41:15;16.20;;;14.67;;
31808;SDS011;18379;48.208;-1.518;2023-12-20T16:46:15;17.20;;;15.40;;
31808;SDS011;18379;48.208;-1.518;2023-12-20T16:51:16;16.60;;;14.87;;
31808;SDS011;18379;48.208;-1.518;2023-12-20T16:56:16;14.67;;;13.47;;
31808;SDS011;18379;48.208;-1.518;2023-12-20T17:01:17;15.80;;;14.47;;
31808;SDS011;18379;48.208;-1.518;2023-12-20T17:06:18;19.97;;;14.80;;
31808;SDS011;18379;48.208;-1.518;2023-12-20T17:11:19;16.10;;;14.53;;
31808;SDS011;18379;48.208;-1.518;2023-12-20T17:16:21;15.83;;;14.43;;
31808;SDS011;18379;48.208;-1.518;2023-12-20T17:21:22;15.30;;;14.07;;
31808;SDS011;18379;48.208;-1.518;2023-12-20T17:26:22;16.33;;;14.90;;
31808;SDS011;18379;48.208;-1.518;2023-12-20T17:31:23;20.83;;;18.73;;
31808;SDS011;18379;48.208;-1.518;2023-12-20T17:36:23;16.97;;;15.33;;
31808;SDS011;18379;48.208;-1.518;2023-12-20T17:41:24;24.47;;;20.10;;
31808;SDS011;18379;48.208;-1.518;2023-12-20T17:46:25;15.43;;;14.23;;
31808;SDS011;18379;48.208;-1.518;2023-12-20T17:51:25;17.70;;;16.13;;
31808;SDS011;18379;48.208;-1.518;2023-12-20T17:56:27;15.60;;;14.50;;
31808;SDS011;18379;48.208;-1.518;2023-12-20T18:01:29;16.23;;;14.70;;
31808;SDS011;18379;48.208;-1.518;2023-12-20T18:06:30;16.00;;;14.60;;
31808;SDS011;18379;48.208;-1.518;2023-12-20T18:11:30;16.73;;;15.27;;
31808;SDS011;18379;48.208;-1.518;2023-12-20T18:16:31;15.87;;;14.47;;
31808;SDS011;18379;48.208;-1.518;2023-12-20T18:21:32;15.27;;;13.93;;
31808;SDS011;18379;48.208;-1.518;2023-12-20T18:26:32;14.47;;;13.40;;
31808;SDS011;18379;48.208;-1.518;2023-12-20T18:31:35;14.57;;;13.37;;
31808;SDS011;18379;48.208;-1.518;2023-12-20T18:36:36;14.43;;;13.43;;
31808;SDS011;18379;48.208;-1.518;2023-12-20T18:41:36;14.13;;;13.23;;
31808;SDS011;18379;48.208;-1.518;2023-12-20T18:46:39;13.67;;;12.87;;
31808;SDS011;18379;48.208;-1.518;2023-12-20T18:51:39;14.50;;;13.27;;
31808;SDS011;18379;48.208;-1.518;2023-12-20T18:56:40;16.77;;;15.17;;
31808;SDS011;18379;48.208;-1.518;2023-12-20T19:01:42;15.90;;;14.53;;
31808;SDS011;18379;48.208;-1.518;2023-12-20T19:06:43;14.23;;;13.13;;
31808;SDS011;18379;48.208;-1.518;2023-12-20T19:11:44;14.67;;;13.17;;
31808;SDS011;18379;48.208;-1.518;2023-12-20T19:16:44;15.17;;;13.90;;
31808;SDS011;18379;48.208;-1.518;2023-12-20T19:21:45;15.87;;;14.43;;
31808;SDS011;18379;48.208;-1.518;2023-12-20T19:26:46;15.07;;;13.87;;
31808;SDS011;18379;48.208;-1.518;2023-12-20T19:31:46;15.80;;;14.40;;
31808;SDS011;18379;48.208;-1.518;2023-12-20T19:36:47;15.17;;;13.67;;
31808;SDS011;18379;48.208;-1.518;2023-12-20T19:41:48;15.50;;;13.80;;
31808;SDS011;18379;48.208;-1.518;2023-12-20T19:46:49;13.87;;;12.90;;
31808;SDS011;18379;48.208;-1.518;2023-12-20T19:51:49;15.33;;;14.23;;
31808;SDS011;18379;48.208;-1.518;2023-12-20T19:56:53;17.60;;;14.67;;
31808;SDS011;18379;48.208;-1.518;2023-12-20T20:01:53;15.63;;;14.03;;
31808;SDS011;18379;48.208;-1.518;2023-12-20T20:06:55;15.57;;;13.97;;
31808;SDS011;18379;48.208;-1.518;2023-12-20T20:11:56;15.90;;;14.50;;
31808;SDS011;18379;48.208;-1.518;2023-12-20T20:16:56;57.70;;;31.23;;
31808;SDS011;18379;48.208;-1.518;2023-12-20T20:21:59;17.73;;;15.80;;
31808;SDS011;18379;48.208;-1.518;2023-12-20T20:27:00;17.30;;;15.60;;
31808;SDS011;18379;48.208;-1.518;2023-12-20T20:32:01;21.60;;;16.37;;
31808;SDS011;18379;48.208;-1.518;2023-12-20T20:37:02;18.17;;;15.80;;
31808;SDS011;18379;48.208;-1.518;2023-12-20T20:42:02;17.93;;;15.90;;
31808;SDS011;18379;48.208;-1.518;2023-12-20T20:47:03;18.10;;;15.20;;
31808;SDS011;18379;48.208;-1.518;2023-12-20T20:52:04;17.80;;;15.80;;
31808;SDS011;18379;48.208;-1.518;2023-12-20T20:57:05;15.90;;;14.27;;
31808;SDS011;18379;48.208;-1.518;2023-12-20T21:02:05;16.23;;;14.77;;
31808;SDS011;18379;48.208;-1.518;2023-12-20T21:07:06;25.20;;;20.53;;
31808;SDS011;18379;48.208;-1.518;2023-12-20T21:12:06;18.20;;;16.00;;
31808;SDS011;18379;48.208;-1.518;2023-12-20T21:17:07;16.17;;;14.50;;
31808;SDS011;18379;48.208;-1.518;2023-12-20T21:22:08;17.30;;;15.50;;
31808;SDS011;18379;48.208;-1.518;2023-12-20T21:27:09;19.20;;;15.93;;
31808;SDS011;18379;48.208;-1.518;2023-12-20T21:32:09;28.93;;;15.47;;
31808;SDS011;18379;48.208;-1.518;2023-12-20T21:37:10;20.47;;;14.90;;
31808;SDS011;18379;48.208;-1.518;2023-12-20T21:42:10;18.63;;;14.63;;
31808;SDS011;18379;48.208;-1.518;2023-12-20T21:47:12;28.27;;;15.40;;
31808;SDS011;18379;48.208;-1.518;2023-12-20T21:52:13;29.50;;;15.90;;
31808;SDS011;18379;48.208;-1.518;2023-12-20T21:57:14;28.53;;;15.43;;
31808;SDS011;18379;48.208;-1.518;2023-12-20T22:02:15;24.27;;;15.00;;
31808;SDS011;18379;48.208;-1.518;2023-12-20T22:07:16;26.57;;;14.53;;
31808;SDS011;18379;48.208;-1.518;2023-12-20T22:12:16;28.50;;;14.87;;
31808;SDS011;18379;48.208;-1.518;2023-12-20T22:17:17;19.73;;;14.90;;
31808;SDS011;18379;48.208;-1.518;2023-12-20T22:22:18;25.17;;;15.17;;
31808;SDS011;18379;48.208;-1.518;2023-12-20T22:27:18;23.60;;;14.63;;
31808;SDS011;18379;48.208;-1.518;2023-12-20T22:32:19;21.47;;;15.43;;
31808;SDS011;18379;48.208;-1.518;2023-12-20T22:37:20;26.90;;;15.57;;
31808;SDS011;18379;48.208;-1.518;2023-12-20T22:42:21;21.00;;;14.60;;
31808;SDS011;18379;48.208;-1.518;2023-12-20T22:47:22;20.97;;;14.10;;
31808;SDS011;18379;48.208;-1.518;2023-12-20T22:52:23;27.53;;;14.90;;
31808;SDS011;18379;48.208;-1.518;2023-12-20T22:57:24;24.30;;;14.77;;
31808;SDS011;18379;48.208;-1.518;2023-12-20T23:02:25;23.97;;;14.73;;
31808;SDS011;18379;48.208;-1.518;2023-12-20T23:07:26;20.87;;;14.40;;
31808;SDS011;18379;48.208;-1.518;2023-12-20T23:12:26;18.67;;;14.53;;
31808;SDS011;18379;48.208;-1.518;2023-12-20T23:17:27;21.90;;;14.60;;
31808;SDS011;18379;48.208;-1.518;2023-12-20T23:22:28;24.20;;;14.87;;
31808;SDS011;18379;48.208;-1.518;2023-12-20T23:27:28;34.13;;;16.50;;
31808;SDS011;18379;48.208;-1.518;2023-12-20T23:32:29;28.07;;;15.80;;
31808;SDS011;18379;48.208;-1.518;2023-12-20T23:37:30;23.83;;;14.80;;
31808;SDS011;18379;48.208;-1.518;2023-12-20T23:42:30;32.90;;;15.33;;
31808;SDS011;18379;48.208;-1.518;2023-12-20T23:47:31;31.37;;;14.90;;
31808;SDS011;18379;48.208;-1.518;2023-12-20T23:52:32;29.67;;;15.60;;
31808;SDS011;18379;48.208;-1.518;2023-12-20T23:57:32;33.03;;;15.43;;
